Time;durP1;ratioP1;P1;durP2;ratioP2;P2;SDS_P1;SDS_P2;PMS_P1;PMS_P2;Temp;Humidity;BMP_temperature;BMP_pressure;BME280_temperature;BME280_humidity;BME280_pressure;Samples;Min_cycle;Max_cycle;Signal;HPM_P1;HPM_P2
2022/03/14 00:00:10;;;;;;;17.35;11.48;;;8.30;60.70;;;;;;4976134;28;20061;-86
2022/03/14 00:02:37;;;;;;;16.70;11.07;;;8.40;60.60;;;;;;4966545;28;20093;-86
2022/03/14 00:05:06;;;;;;;19.00;10.95;;;8.50;61.30;;;;;;4993100;28;20046;-87
2022/03/14 00:07:36;;;;;;;18.05;11.50;;;8.60;61.50;;;;;;4987984;28;20499;-85
2022/03/14 00:10:03;;;;;;;15.43;10.52;;;8.80;62.00;;;;;;4976124;28;20046;-89
2022/03/14 00:12:30;;;;;;;20.02;10.68;;;9.00;62.30;;;;;;4992015;28;20038;-87
2022/03/14 00:14:59;;;;;;;15.43;10.32;;;9.00;62.40;;;;;;4991002;28;20046;-86
2022/03/14 00:17:26;;;;;;;15.10;10.25;;;9.00;62.90;;;;;;4975149;28;20065;-88
2022/03/14 00:19:54;;;;;;;14.35;9.75;;;9.10;63.70;;;;;;4975358;28;20046;-86
2022/03/14 00:22:22;;;;;;;15.75;9.98;;;9.20;63.80;;;;;;4975321;28;20046;-91
2022/03/14 00:24:48;;;;;;;14.30;9.00;;;9.20;63.90;;;;;;4976041;28;20133;-85
2022/03/14 00:27:14;;;;;;;14.70;9.23;;;9.10;64.40;;;;;;5006382;28;20133;-85
2022/03/14 00:29:40;;;;;;;14.68;9.43;;;9.20;65.30;;;;;;4975940;28;20696;-84
2022/03/14 00:32:06;;;;;;;13.20;9.05;;;9.30;65.40;;;;;;4992411;28;20125;-86
2022/03/14 00:34:32;;;;;;;13.50;9.50;;;9.30;65.90;;;;;;4975723;28;20048;-86
2022/03/14 00:36:57;;;;;;;14.45;9.30;;;9.20;66.00;;;;;;4974750;28;20042;-84
2022/03/14 00:39:23;;;;;;;12.85;9.52;;;9.30;66.40;;;;;;4991430;28;20058;-84
2022/03/14 00:41:49;;;;;;;11.82;8.68;;;9.30;66.70;;;;;;4992121;28;20054;-85
2022/03/14 00:44:18;;;;;;;12.15;8.10;;;9.40;66.80;;;;;;4956488;28;20042;-84
2022/03/14 00:46:43;;;;;;;13.68;9.38;;;9.50;67.10;;;;;;4988781;28;20416;-84
2022/03/14 00:49:09;;;;;;;12.68;8.85;;;9.50;66.90;;;;;;5008294;28;20042;-88
2022/03/14 00:51:35;;;;;;;12.40;7.93;;;9.60;67.20;;;;;;4991338;28;20096;-85
2022/03/14 00:54:02;;;;;;;11.32;7.60;;;9.70;67.20;;;;;;4975625;28;20073;-85
2022/03/14 00:56:28;;;;;;;15.00;8.65;;;9.70;67.50;;;;;;4974445;28;20125;-86
2022/03/14 00:58:55;;;;;;;15.55;8.30;;;9.80;67.40;;;;;;4991828;28;20065;-84
2022/03/14 01:01:22;;;;;;;12.07;7.80;;;9.80;67.50;;;;;;4959107;28;20060;-86
2022/03/14 01:03:47;;;;;;;11.85;8.88;;;9.90;67.90;;;;;;4974539;28;20046;-85
2022/03/14 01:06:13;;;;;;;11.50;7.72;;;9.80;67.90;;;;;;4972561;28;20042;-84
2022/03/14 01:08:40;;;;;;;11.98;8.27;;;9.90;68.00;;;;;;4968395;28;20120;-86
2022/03/14 01:11:06;;;;;;;13.20;8.27;;;9.90;68.20;;;;;;4952838;28;20149;-86
2022/03/14 01:13:32;;;;;;;12.55;8.43;;;9.90;68.20;;;;;;4972101;28;20133;-85
2022/03/14 01:15:59;;;;;;;11.38;8.57;;;9.80;68.50;;;;;;4991476;28;20050;-84
2022/03/14 01:18:25;;;;;;;12.25;7.65;;;9.80;68.90;;;;;;4974280;28;20197;-89
2022/03/14 01:20:51;;;;;;;10.75;8.02;;;9.80;68.90;;;;;;4973850;28;20129;-86
2022/03/14 01:23:17;;;;;;;12.93;7.90;;;9.80;69.20;;;;;;4975006;28;20109;-86
2022/03/14 01:25:45;;;;;;;11.77;8.48;;;9.70;69.20;;;;;;4990325;28;20153;-85
2022/03/14 01:28:11;;;;;;;12.40;7.93;;;9.70;69.80;;;;;;4974993;28;20057;-85
2022/03/14 01:30:38;;;;;;;13.25;8.25;;;9.70;70.00;;;;;;4975175;28;20046;-85
2022/03/14 01:33:04;;;;;;;10.23;7.22;;;9.70;70.00;;;;;;4975774;28;20507;-85
2022/03/14 01:35:30;;;;;;;11.43;6.38;;;9.70;70.50;;;;;;4975021;28;20196;-88
2022/03/14 01:37:57;;;;;;;8.95;6.93;;;9.70;71.10;;;;;;4955415;28;20532;-84
2022/03/14 01:40:24;;;;;;;9.35;6.20;;;9.80;71.60;;;;;;5005893;28;20054;-85
2022/03/14 01:42:50;;;;;;;10.05;6.78;;;9.80;71.80;;;;;;4974207;28;20046;-85
2022/03/14 01:45:19;;;;;;;9.52;6.32;;;9.90;71.80;;;;;;4958535;28;20416;-84
2022/03/14 01:47:45;;;;;;;7.40;6.22;;;9.90;71.90;;;;;;4958014;28;20073;-84
2022/03/14 01:50:15;;;;;;;11.02;6.68;;;10.00;71.70;;;;;;4974249;28;20069;-85
2022/03/14 01:52:42;;;;;;;11.32;6.57;;;9.90;71.60;;;;;;4989887;28;20072;-85
2022/03/14 01:55:09;;;;;;;9.30;6.70;;;9.90;71.70;;;;;;4957622;28;20054;-86
2022/03/14 01:57:35;;;;;;;9.75;7.22;;;9.90;72.00;;;;;;4940475;28;20046;-84
2022/03/14 02:00:03;;;;;;;8.52;6.70;;;9.80;72.10;;;;;;4965333;28;20540;-86
2022/03/14 02:02:28;;;;;;;14.45;6.70;;;9.80;72.20;;;;;;4921290;29;20523;-88
2022/03/14 02:04:54;;;;;;;8.48;6.40;;;9.80;72.10;;;;;;4939208;28;20047;-84
2022/03/14 02:07:23;;;;;;;12.68;6.75;;;9.80;72.10;;;;;;4939368;28;20794;-86
2022/03/14 02:09:49;;;;;;;10.18;6.38;;;9.80;72.30;;;;;;4943183;28;20046;-84
2022/03/14 02:12:15;;;;;;;11.55;7.30;;;9.70;72.20;;;;;;4954644;28;20070;-84
2022/03/14 02:14:41;;;;;;;10.10;6.90;;;9.70;72.30;;;;;;4962553;28;20062;-86
2022/03/14 02:17:12;;;;;;;10.45;6.72;;;9.70;72.50;;;;;;4929846;28;20410;-85
2022/03/14 02:19:39;;;;;;;9.65;7.15;;;9.60;72.50;;;;;;4955226;28;20046;-84
2022/03/14 02:22:12;;;;;;;8.90;6.53;;;9.60;73.40;;;;;;4939442;28;20153;-85
2022/03/14 02:24:39;;;;;;;8.57;6.53;;;9.60;73.60;;;;;;4957557;28;20078;-84
2022/03/14 02:27:05;;;;;;;9.07;7.05;;;9.50;73.70;;;;;;4926065;28;20420;-84
2022/03/14 02:29:31;;;;;;;9.25;6.47;;;9.50;74.00;;;;;;4945835;28;20054;-86
2022/03/14 02:31:56;;;;;;;8.10;6.43;;;9.50;74.20;;;;;;4947105;28;20065;-85
2022/03/14 02:34:22;;;;;;;9.52;6.38;;;9.40;74.40;;;;;;4939115;28;20047;-85
2022/03/14 02:36:48;;;;;;;9.13;6.60;;;9.40;74.30;;;;;;4938281;28;20515;-84
2022/03/14 02:39:14;;;;;;;8.73;6.63;;;9.40;74.70;;;;;;4949823;28;20058;-85
2022/03/14 02:41:40;;;;;;;8.18;6.20;;;9.40;75.00;;;;;;4980789;28;20463;-85
2022/03/14 02:44:08;;;;;;;7.93;6.13;;;9.40;75.40;;;;;;4941649;28;20180;-87
2022/03/14 02:46:35;;;;;;;8.60;6.47;;;9.40;75.60;;;;;;4922568;29;20054;-90
2022/03/14 02:49:01;;;;;;;9.35;5.85;;;9.40;76.00;;;;;;4951949;28;20126;-88
2022/03/14 02:51:28;;;;;;;7.70;5.80;;;9.30;76.80;;;;;;4956332;28;20054;-85
2022/03/14 02:53:55;;;;;;;7.20;5.50;;;9.40;76.60;;;;;;4945631;28;20047;-87
2022/03/14 02:56:21;;;;;;;8.82;5.90;;;9.40;76.50;;;;;;4950217;28;20531;-86
2022/03/14 02:58:53;;;;;;;8.18;5.25;;;9.40;76.60;;;;;;4972212;28;20050;-84
2022/03/14 03:01:20;;;;;;;9.10;4.95;;;9.40;76.80;;;;;;4959711;28;20913;-85
2022/03/14 03:03:46;;;;;;;8.50;4.85;;;9.40;76.80;;;;;;4989604;28;20046;-86
2022/03/14 03:06:13;;;;;;;6.93;5.40;;;9.40;76.70;;;;;;4974047;28;20116;-85
2022/03/14 03:08:44;;;;;;;6.03;4.85;;;9.40;76.60;;;;;;4991027;28;20050;-85
2022/03/14 03:11:11;;;;;;;6.30;4.53;;;9.40;76.80;;;;;;4975177;28;20043;-85
2022/03/14 03:13:41;;;;;;;5.75;4.50;;;9.40;77.10;;;;;;4987711;28;20082;-93
2022/03/14 03:16:08;;;;;;;6.70;4.60;;;9.40;77.30;;;;;;4972449;28;20061;-85
2022/03/14 03:18:37;;;;;;;6.70;4.80;;;9.40;77.50;;;;;;4972668;28;20062;-85
2022/03/14 03:21:03;;;;;;;6.85;4.70;;;9.40;77.90;;;;;;4989932;28;20073;-87
2022/03/14 03:23:30;;;;;;;8.00;4.82;;;9.40;78.70;;;;;;4989640;28;20039;-86
2022/03/14 03:25:56;;;;;;;7.38;4.40;;;9.50;78.80;;;;;;4972970;28;20096;-86
2022/03/14 03:28:22;;;;;;;6.03;4.32;;;9.40;79.20;;;;;;4973838;28;20042;-84
2022/03/14 03:30:48;;;;;;;4.40;3.40;;;9.50;79.30;;;;;;4973732;28;20046;-85
2022/03/14 03:33:13;;;;;;;8.93;3.40;;;9.50;79.20;;;;;;4957641;28;20041;-86
2022/03/14 03:35:39;;;;;;;4.78;3.67;;;9.50;79.00;;;;;;4988984;28;20104;-91
2022/03/14 03:38:05;;;;;;;5.43;3.67;;;9.50;79.10;;;;;;4972986;28;20050;-85
2022/03/14 03:40:31;;;;;;;7.05;3.75;;;9.50;79.30;;;;;;4990247;28;20053;-85
2022/03/14 03:42:57;;;;;;;4.28;3.47;;;9.50;79.90;;;;;;4989669;28;20472;-85
2022/03/14 03:45:22;;;;;;;5.25;4.18;;;9.50;79.80;;;;;;4973058;28;20053;-86
2022/03/14 03:47:48;;;;;;;4.60;3.50;;;9.60;80.00;;;;;;4973521;28;20133;-85
2022/03/14 03:50:16;;;;;;;4.63;3.53;;;9.50;79.60;;;;;;4977572;28;20054;-87
2022/03/14 03:52:42;;;;;;;3.75;2.97;;;9.50;79.90;;;;;;4977045;28;20104;-89
2022/03/14 03:55:09;;;;;;;5.22;3.80;;;9.50;80.20;;;;;;4991868;28;20078;-85
2022/03/14 03:57:35;;;;;;;4.70;3.40;;;9.50;80.20;;;;;;4982767;28;20130;-85
2022/03/14 04:00:03;;;;;;;4.28;3.45;;;9.50;80.10;;;;;;4959420;28;20297;-88
2022/03/14 04:02:35;;;;;;;5.07;3.40;;;9.50;80.30;;;;;;4947021;28;20073;-87
2022/03/14 04:05:00;;;;;;;5.43;3.75;;;9.50;81.00;;;;;;4938216;29;20047;-85
2022/03/14 04:07:26;;;;;;;4.82;3.50;;;9.50;81.40;;;;;;4952906;28;20050;-85
2022/03/14 04:09:55;;;;;;;6.57;3.47;;;9.50;81.50;;;;;;4944251;28;20050;-85
2022/03/14 04:12:26;;;;;;;5.20;3.60;;;9.40;82.10;;;;;;4977320;28;20069;-86
2022/03/14 04:14:52;;;;;;;4.20;3.42;;;9.50;82.50;;;;;;4968048;28;20039;-85
2022/03/14 04:17:19;;;;;;;5.40;3.38;;;9.50;82.00;;;;;;4985267;28;20132;-86
2022/03/14 04:19:45;;;;;;;5.32;3.33;;;9.50;82.30;;;;;;4942375;28;20105;-89
2022/03/14 04:22:14;;;;;;;5.70;3.47;;;9.50;82.50;;;;;;4952881;28;20067;-85
2022/03/14 04:24:40;;;;;;;4.50;3.78;;;9.50;82.70;;;;;;4943157;28;20054;-85
2022/03/14 04:27:06;;;;;;;4.20;3.40;;;9.40;83.10;;;;;;4947070;28;20108;-85
2022/03/14 04:29:31;;;;;;;4.30;3.22;;;9.50;83.00;;;;;;4941552;28;20053;-85
2022/03/14 04:31:57;;;;;;;3.78;3.17;;;9.50;83.50;;;;;;4940325;28;20043;-85
2022/03/14 04:34:23;;;;;;;4.90;3.63;;;9.60;83.80;;;;;;4934177;28;20043;-85
2022/03/14 04:36:50;;;;;;;4.43;3.35;;;9.50;84.30;;;;;;4964348;28;20046;-85
2022/03/14 04:39:17;;;;;;;4.15;3.38;;;9.60;83.70;;;;;;4954936;28;20050;-86
2022/03/14 04:41:43;;;;;;;5.00;3.38;;;9.60;83.80;;;;;;4950217;28;20050;-85
2022/03/14 04:44:10;;;;;;;3.95;2.97;;;9.60;83.80;;;;;;4976140;28;20054;-86
2022/03/14 04:46:35;;;;;;;3.80;3.15;;;9.60;83.70;;;;;;4956109;28;20050;-85
2022/03/14 04:49:04;;;;;;;4.15;3.40;;;9.60;83.80;;;;;;4928959;28;20056;-89
2022/03/14 04:51:30;;;;;;;4.00;3.15;;;9.60;83.90;;;;;;4959186;28;20129;-88
2022/03/14 04:53:56;;;;;;;3.85;3.08;;;9.60;84.50;;;;;;4926462;28;20083;-86
2022/03/14 04:56:21;;;;;;;5.38;3.00;;;9.60;84.60;;;;;;4953657;28;20124;-87
2022/03/14 04:58:47;;;;;;;4.78;3.25;;;9.60;84.50;;;;;;4992069;28;20046;-90
2022/03/14 05:01:13;;;;;;;4.68;3.25;;;9.60;84.40;;;;;;4974988;28;20124;-86
2022/03/14 05:03:39;;;;;;;5.28;3.00;;;9.60;84.50;;;;;;4975546;28;20097;-86
2022/03/14 05:06:04;;;;;;;3.88;3.08;;;9.60;84.70;;;;;;4974150;28;20050;-87
2022/03/14 05:08:30;;;;;;;5.20;3.28;;;9.60;85.00;;;;;;4990983;28;20054;-88
2022/03/14 05:10:57;;;;;;;4.43;3.22;;;9.60;85.20;;;;;;4974681;28;20133;-86
2022/03/14 05:13:23;;;;;;;4.10;3.33;;;9.60;85.50;;;;;;4975406;28;20126;-86
2022/03/14 05:15:49;;;;;;;4.05;3.28;;;9.50;85.80;;;;;;4990482;28;20550;-86
2022/03/14 05:18:15;;;;;;;3.75;3.00;;;9.50;86.40;;;;;;4991568;28;20088;-85
2022/03/14 05:20:41;;;;;;;4.78;3.80;;;9.40;86.60;;;;;;4975823;28;20069;-85
2022/03/14 05:23:07;;;;;;;4.97;3.30;;;9.40;87.10;;;;;;4958122;28;20054;-86
2022/03/14 05:25:32;;;;;;;4.72;3.45;;;9.40;87.60;;;;;;4989584;28;20073;-86
2022/03/14 05:27:58;;;;;;;4.15;3.25;;;9.40;87.70;;;;;;4958753;28;20134;-85
2022/03/14 05:30:24;;;;;;;5.70;3.45;;;9.40;88.20;;;;;;4975394;28;20137;-87
2022/03/14 05:32:51;;;;;;;4.30;3.63;;;9.40;88.50;;;;;;4974662;28;20042;-90
2022/03/14 05:35:17;;;;;;;5.32;4.20;;;9.40;88.70;;;;;;4990106;28;20042;-84
2022/03/14 05:37:47;;;;;;;5.00;3.60;;;9.40;88.60;;;;;;4990318;28;20388;-85
2022/03/14 05:40:15;;;;;;;5.28;3.55;;;9.40;89.10;;;;;;4973903;28;20046;-85
2022/03/14 05:42:47;;;;;;;4.50;3.70;;;9.30;89.40;;;;;;4958603;28;20046;-84
2022/03/14 05:45:18;;;;;;;4.75;3.83;;;9.30;90.20;;;;;;4972621;28;20157;-85
2022/03/14 05:47:45;;;;;;;5.43;3.83;;;9.30;90.40;;;;;;4974431;28;20050;-86
2022/03/14 05:50:11;;;;;;;6.18;4.10;;;9.20;90.40;;;;;;4990805;28;20102;-84
2022/03/14 05:52:37;;;;;;;4.75;4.15;;;9.20;90.90;;;;;;4991200;28;20042;-85
2022/03/14 05:55:05;;;;;;;6.15;4.18;;;9.10;91.30;;;;;;4973039;28;20039;-85
2022/03/14 05:57:32;;;;;;;4.65;3.45;;;9.10;91.80;;;;;;4958528;28;20085;-85
2022/03/14 05:59:58;;;;;;;5.43;3.90;;;9.10;92.40;;;;;;4974724;28;20480;-87
2022/03/14 06:02:25;;;;;;;7.55;4.20;;;9.00;92.60;;;;;;4956779;28;20046;-86
2022/03/14 06:04:52;;;;;;;5.13;4.13;;;9.00;93.30;;;;;;4973254;28;20081;-85
2022/03/14 06:07:22;;;;;;;5.63;4.50;;;9.00;93.60;;;;;;4989357;28;20042;-86
2022/03/14 06:09:48;;;;;;;6.75;4.60;;;8.90;93.70;;;;;;4972987;28;20050;-87
2022/03/14 06:12:28;;;;;;;6.05;4.15;;;8.90;94.40;;;;;;4986353;28;20042;-85
2022/03/14 06:14:59;;;;;;;5.53;4.60;;;8.90;95.20;;;;;;4990628;28;20042;-92
2022/03/14 06:17:25;;;;;;;5.88;4.47;;;8.80;95.20;;;;;;4993015;28;20061;-84
2022/03/14 06:19:51;;;;;;;6.47;4.70;;;8.80;95.70;;;;;;5006531;28;20046;-85
2022/03/14 06:22:19;;;;;;;5.55;4.68;;;8.80;96.40;;;;;;4975962;28;20104;-86
2022/03/14 06:24:47;;;;;;;7.43;5.07;;;8.80;96.90;;;;;;4987272;28;20134;-87
2022/03/14 06:27:20;;;;;;;6.97;5.22;;;8.80;97.50;;;;;;4968747;28;20054;-87
2022/03/14 06:29:46;;;;;;;6.32;5.25;;;8.70;98.10;;;;;;4966037;28;20096;-85
2022/03/14 06:32:13;;;;;;;7.07;5.13;;;8.70;98.90;;;;;;4980267;28;20130;-86
2022/03/14 06:34:39;;;;;;;5.93;4.85;;;8.70;99.80;;;;;;5005115;28;20093;-87
2022/03/14 06:37:08;;;;;;;6.28;5.20;;;8.70;99.90;;;;;;5000266;28;20077;-86
2022/03/14 06:39:38;;;;;;;6.50;5.05;;;8.60;99.90;;;;;;4991099;28;20136;-87
2022/03/14 06:42:09;;;;;;;6.10;4.75;;;8.60;99.90;;;;;;4972152;28;20047;-87
2022/03/14 06:44:40;;;;;;;6.47;5.47;;;8.60;99.90;;;;;;4989284;28;20105;-86
2022/03/14 06:47:11;;;;;;;6.70;5.40;;;8.60;99.90;;;;;;4972979;28;20583;-87
2022/03/14 06:49:37;;;;;;;6.75;5.32;;;8.60;99.90;;;;;;5008183;28;20046;-85
2022/03/14 06:52:04;;;;;;;6.30;5.22;;;8.60;99.90;;;;;;4974638;28;20050;-84
2022/03/14 06:54:30;;;;;;;8.02;5.50;;;8.50;99.90;;;;;;4996731;28;20054;-87
2022/03/14 06:56:56;;;;;;;7.32;5.50;;;8.40;99.90;;;;;;4982649;28;20495;-87
2022/03/14 06:59:22;;;;;;;7.63;6.10;;;8.50;99.90;;;;;;4985615;28;20047;-86
2022/03/14 07:01:48;;;;;;;8.43;6.20;;;8.50;99.90;;;;;;4973633;28;20085;-87
2022/03/14 07:04:13;;;;;;;7.78;5.78;;;8.50;99.90;;;;;;4955498;28;20085;-86
2022/03/14 07:06:39;;;;;;;7.57;6.05;;;8.50;99.90;;;;;;4989560;28;20130;-86
2022/03/14 07:09:04;;;;;;;8.85;6.18;;;8.50;99.90;;;;;;4990256;28;20046;-86
2022/03/14 07:11:31;;;;;;;8.70;6.45;;;8.50;99.90;;;;;;4974457;28;20061;-86
2022/03/14 07:13:57;;;;;;;8.50;6.53;;;8.50;99.90;;;;;;4989820;28;20043;-85
2022/03/14 07:16:23;;;;;;;7.80;6.30;;;8.50;99.90;;;;;;4973256;28;20746;-86
2022/03/14 07:18:48;;;;;;;9.50;6.55;;;8.50;99.90;;;;;;4990178;28;20546;-85
2022/03/14 07:21:14;;;;;;;8.20;6.05;;;8.50;99.90;;;;;;4973547;28;20072;-87
2022/03/14 07:23:40;;;;;;;8.52;6.40;;;8.60;99.90;;;;;;4974722;28;20049;-85
2022/03/14 07:26:06;;;;;;;10.13;7.55;;;8.60;99.90;;;;;;4993739;28;20054;-86
2022/03/14 07:28:33;;;;;;;9.68;7.10;;;8.60;99.90;;;;;;4977562;28;20089;-86
2022/03/14 07:30:58;;;;;;;9.65;6.50;;;8.70;99.90;;;;;;4993150;28;20050;-86
2022/03/14 07:33:25;;;;;;;8.80;6.78;;;8.70;99.90;;;;;;4971853;28;20034;-86
2022/03/14 07:35:51;;;;;;;10.18;7.15;;;8.70;99.90;;;;;;4986821;28;20130;-86
2022/03/14 07:38:17;;;;;;;9.75;7.10;;;8.70;99.90;;;;;;4975737;28;20054;-85
2022/03/14 07:40:42;;;;;;;10.48;7.18;;;8.70;99.90;;;;;;4992798;28;20046;-85
2022/03/14 07:43:08;;;;;;;8.95;6.90;;;8.70;99.90;;;;;;4990754;28;20129;-84
2022/03/14 07:45:34;;;;;;;10.55;7.65;;;8.80;99.90;;;;;;4974085;28;20104;-84
2022/03/14 07:48:00;;;;;;;12.45;8.05;;;8.80;99.90;;;;;;4970648;28;20112;-84
2022/03/14 07:50:27;;;;;;;11.48;7.72;;;8.80;99.90;;;;;;4975998;28;20550;-85
2022/03/14 07:52:53;;;;;;;11.70;7.32;;;8.80;99.90;;;;;;4976204;28;20047;-86
2022/03/14 07:55:19;;;;;;;9.10;6.93;;;8.80;99.90;;;;;;4972113;28;20412;-85
2022/03/14 07:57:44;;;;;;;9.70;7.57;;;8.90;99.90;;;;;;4992959;28;20309;-84
2022/03/14 08:00:30;;;;;;;11.05;7.25;;;8.90;99.90;;;;;;4980957;28;20047;-85
2022/03/14 08:02:56;;;;;;;10.82;7.88;;;8.90;99.90;;;;;;4988390;28;20053;-85
2022/03/14 08:05:26;;;;;;;14.18;8.43;;;8.90;99.90;;;;;;4986936;28;20050;-84
2022/03/14 08:07:53;;;;;;;11.35;7.63;;;8.90;99.90;;;;;;4997877;28;20042;-84
2022/03/14 08:10:19;;;;;;;9.80;7.40;;;9.00;99.90;;;;;;4991422;28;20053;-84
2022/03/14 08:12:51;;;;;;;10.88;8.20;;;9.00;99.90;;;;;;4992029;28;20046;-89
2022/03/14 08:15:27;;;;;;;11.23;7.85;;;9.00;99.90;;;;;;4989610;28;20129;-86
2022/03/14 08:17:54;;;;;;;13.07;8.30;;;9.10;99.90;;;;;;5002290;28;20053;-84
2022/03/14 08:20:20;;;;;;;9.40;7.28;;;9.00;99.90;;;;;;4983409;28;20125;-85
2022/03/14 08:22:47;;;;;;;10.65;7.90;;;9.10;99.90;;;;;;4972015;28;20834;-85
2022/03/14 08:25:14;;;;;;;9.65;7.45;;;9.10;99.90;;;;;;4991393;28;20107;-84
2022/03/14 08:27:40;;;;;;;12.50;8.40;;;9.20;99.90;;;;;;4978433;28;20054;-83
2022/03/14 08:30:06;;;;;;;10.90;8.52;;;9.20;99.90;;;;;;4994536;28;20061;-84
2022/03/14 08:32:34;;;;;;;11.95;8.32;;;9.20;99.90;;;;;;4976808;28;20188;-85
2022/03/14 08:35:07;;;;;;;8.80;7.53;;;9.20;99.90;;;;;;4991736;28;20047;-84
2022/03/14 08:37:43;;;;;;;11.25;8.25;;;9.20;99.90;;;;;;4977839;28;20061;-85
2022/03/14 08:40:11;;;;;;;10.50;8.07;;;9.20;99.90;;;;;;4991945;28;20054;-89
2022/03/14 08:42:41;;;;;;;11.10;8.73;;;9.20;99.90;;;;;;4975983;28;20050;-84
2022/03/14 08:45:08;;;;;;;12.60;8.75;;;9.10;99.90;;;;;;4993370;28;20082;-83
2022/03/14 08:47:34;;;;;;;11.45;8.73;;;9.20;99.90;;;;;;4961695;28;20058;-84
2022/03/14 08:50:02;;;;;;;11.38;9.20;;;9.20;99.90;;;;;;4991818;28;20042;-84
2022/03/14 08:52:29;;;;;;;12.13;8.90;;;9.20;99.90;;;;;;4979087;28;20298;-86
2022/03/14 08:54:56;;;;;;;13.50;9.52;;;9.30;99.90;;;;;;4964090;28;20427;-86
2022/03/14 08:57:22;;;;;;;12.30;9.52;;;9.30;99.90;;;;;;4986868;28;20129;-84
2022/03/14 08:59:48;;;;;;;14.43;9.38;;;9.30;99.90;;;;;;4982800;28;20512;-85
2022/03/14 09:02:14;;;;;;;13.30;10.00;;;9.40;99.90;;;;;;4974079;28;20088;-85
2022/03/14 09:04:39;;;;;;;11.88;9.20;;;9.30;99.90;;;;;;4959940;28;20472;-85
2022/03/14 09:07:06;;;;;;;12.07;9.38;;;9.40;99.90;;;;;;4959948;28;20061;-87
2022/03/14 09:09:32;;;;;;;11.88;9.52;;;9.40;99.90;;;;;;4976509;28;20251;-86
2022/03/14 09:11:58;;;;;;;13.45;10.07;;;9.40;99.90;;;;;;4977709;28;20533;-88
2022/03/14 09:14:24;;;;;;;12.32;9.55;;;9.50;99.90;;;;;;4975400;28;20050;-85
2022/03/14 09:16:51;;;;;;;12.75;9.48;;;9.50;99.90;;;;;;4993148;28;20049;-84
2022/03/14 09:19:17;;;;;;;16.88;11.05;;;9.60;99.90;;;;;;4957351;28;20085;-84
2022/03/14 09:21:43;;;;;;;13.55;10.32;;;9.60;99.90;;;;;;4984964;28;20158;-89
2022/03/14 09:24:09;;;;;;;15.18;11.00;;;9.60;99.90;;;;;;4957180;28;20114;-87
2022/03/14 09:26:37;;;;;;;14.15;11.13;;;9.70;99.90;;;;;;4990970;28;20042;-85
2022/03/14 09:29:04;;;;;;;14.20;11.00;;;9.60;99.90;;;;;;4989043;28;20058;-87
2022/03/14 09:31:30;;;;;;;13.77;11.05;;;9.60;99.90;;;;;;4969587;28;20051;-86
2022/03/14 09:33:56;;;;;;;15.75;11.38;;;9.60;99.90;;;;;;4971076;28;20043;-85
2022/03/14 09:36:23;;;;;;;17.45;13.07;;;9.50;99.90;;;;;;4998785;28;20107;-84
2022/03/14 09:38:48;;;;;;;19.45;13.63;;;9.50;99.90;;;;;;4972235;28;20057;-84
2022/03/14 09:41:19;;;;;;;20.70;14.18;;;9.40;99.90;;;;;;4991483;28;20045;-87
2022/03/14 09:43:47;;;;;;;21.88;15.02;;;9.40;99.90;;;;;;4974970;28;20088;-84
2022/03/14 09:46:14;;;;;;;24.25;15.80;;;9.30;99.90;;;;;;4967196;28;20047;-86
2022/03/14 09:48:50;;;;;;;26.17;16.63;;;9.30;99.90;;;;;;4977667;28;20046;-83
2022/03/14 09:51:17;;;;;;;23.90;14.75;;;9.20;99.90;;;;;;4970964;28;20132;-87
2022/03/14 09:53:44;;;;;;;25.42;16.25;;;9.10;99.90;;;;;;4974749;28;20503;-86
2022/03/14 09:56:10;;;;;;;21.13;14.32;;;9.10;99.90;;;;;;5004542;28;20141;-84
2022/03/14 09:58:38;;;;;;;25.17;16.13;;;9.10;99.90;;;;;;4988076;28;20148;-84
2022/03/14 10:01:04;;;;;;;26.25;16.35;;;9.00;99.90;;;;;;4990355;28;20050;-84
2022/03/14 10:03:31;;;;;;;25.95;16.83;;;9.00;99.90;;;;;;4970620;28;20073;-84
2022/03/14 10:05:56;;;;;;;34.25;16.65;;;9.00;99.90;;;;;;4973763;28;20054;-83
2022/03/14 10:08:25;;;;;;;28.02;16.85;;;8.90;99.90;;;;;;4973321;28;20054;-86
2022/03/14 10:10:51;;;;;;;30.30;16.50;;;8.90;99.90;;;;;;4990075;28;20504;-83
2022/03/14 10:13:16;;;;;;;23.50;14.38;;;8.90;99.90;;;;;;4999466;28;20152;-86
2022/03/14 10:15:42;;;;;;;27.15;15.52;;;8.90;99.90;;;;;;4974389;28;20050;-83
2022/03/14 10:18:11;;;;;;;24.83;14.70;;;8.80;99.90;;;;;;4990207;28;20054;-84
2022/03/14 10:20:37;;;;;;;25.70;13.43;;;8.80;99.90;;;;;;4973638;28;20484;-84
2022/03/14 10:23:03;;;;;;;28.40;13.23;;;8.80;99.90;;;;;;4957622;28;20136;-84
2022/03/14 10:25:32;;;;;;;25.73;12.15;;;8.80;99.90;;;;;;4973171;28;20073;-84
2022/03/14 10:28:01;;;;;;;26.17;12.73;;;8.80;99.90;;;;;;4985173;28;20051;-84
2022/03/14 10:30:31;;;;;;;24.60;12.68;;;8.70;99.90;;;;;;4971797;28;20057;-83
2022/03/14 10:33:13;;;;;;;25.35;12.32;;;8.80;99.90;;;;;;4988849;28;20042;-84
2022/03/14 10:35:41;;;;;;;21.23;10.70;;;8.80;99.90;;;;;;4988565;28;20077;-84
2022/03/14 10:38:10;;;;;;;30.52;13.35;;;8.80;99.90;;;;;;4977184;28;20039;-86
2022/03/14 10:40:40;;;;;;;30.45;14.05;;;8.80;99.90;;;;;;4987823;28;20163;-84
2022/03/14 10:43:23;;;;;;;29.35;14.35;;;8.80;99.90;;;;;;4953650;28;20051;-86
2022/03/14 10:45:49;;;;;;;30.77;15.43;;;8.80;99.90;;;;;;4957981;28;20086;-84
2022/03/14 10:48:15;;;;;;;29.83;15.25;;;8.80;99.90;;;;;;4969516;28;20050;-84
2022/03/14 10:50:43;;;;;;;31.27;15.27;;;9.00;99.90;;;;;;4970918;28;20049;-84
2022/03/14 10:53:20;;;;;;;38.75;17.05;;;9.00;99.90;;;;;;4987621;28;20108;-83
2022/03/14 10:55:56;;;;;;;31.27;16.83;;;9.30;99.90;;;;;;4979571;28;20054;-86
2022/03/14 10:58:33;;;;;;;34.17;16.75;;;9.40;99.90;;;;;;4987305;28;20051;-84
2022/03/14 11:01:08;;;;;;;30.88;15.65;;;9.50;99.90;;;;;;4986056;28;20404;-84
2022/03/14 11:03:33;;;;;;;33.10;16.23;;;9.40;99.90;;;;;;4956792;28;20108;-83
2022/03/14 11:06:04;;;;;;;30.30;14.43;;;9.50;99.90;;;;;;4984221;28;20488;-82
2022/03/14 11:08:31;;;;;;;28.60;15.48;;;9.60;99.90;;;;;;4988039;28;20077;-83
2022/03/14 11:10:59;;;;;;;29.50;14.43;;;9.60;99.90;;;;;;4989306;28;20054;-83
2022/03/14 11:13:26;;;;;;;24.85;13.18;;;9.80;99.90;;;;;;4987721;28;20047;-83
2022/03/14 11:15:52;;;;;;;25.90;12.20;;;9.80;99.90;;;;;;4972475;28;20373;-85
2022/03/14 11:18:19;;;;;;;23.33;12.15;;;9.90;99.90;;;;;;4983619;28;20054;-82
2022/03/14 11:20:46;;;;;;;26.65;11.52;;;9.80;99.90;;;;;;4981917;28;20050;-84
2022/03/14 11:23:16;;;;;;;24.38;11.90;;;9.70;99.90;;;;;;4970708;28;20104;-83
2022/03/14 11:25:46;;;;;;;25.65;12.73;;;9.60;99.90;;;;;;4968841;28;20108;-84
2022/03/14 11:28:18;;;;;;;21.17;9.93;;;9.60;99.90;;;;;;4967466;28;20515;-84
2022/03/14 11:30:57;;;;;;;26.38;13.02;;;9.40;99.90;;;;;;4968244;28;20053;-87
2022/03/14 11:33:23;;;;;;;20.73;10.77;;;9.60;99.90;;;;;;4976591;28;20372;-89
2022/03/14 11:35:51;;;;;;;21.77;10.52;;;9.70;99.90;;;;;;4955905;28;20218;-84
2022/03/14 11:38:17;;;;;;;21.92;11.30;;;9.80;99.90;;;;;;4988352;28;20403;-82
2022/03/14 11:40:45;;;;;;;25.85;12.90;;;9.80;99.90;;;;;;4957043;28;20104;-86
2022/03/14 11:43:12;;;;;;;26.50;12.95;;;9.80;99.90;;;;;;4990048;28;20046;-83
2022/03/14 11:45:38;;;;;;;24.15;12.10;;;9.70;99.90;;;;;;4973544;28;20125;-83
2022/03/14 11:48:06;;;;;;;21.30;11.00;;;9.70;99.90;;;;;;4961313;28;20065;-86
2022/03/14 11:50:46;;;;;;;19.70;10.45;;;9.80;99.90;;;;;;4970686;28;20080;-83
2022/03/14 11:53:26;;;;;;;22.45;11.63;;;9.70;99.90;;;;;;4981380;28;20046;-82
2022/03/14 11:56:05;;;;;;;21.10;11.85;;;9.70;99.90;;;;;;4957241;28;20046;-83
2022/03/14 11:58:42;;;;;;;23.45;10.18;;;9.80;99.90;;;;;;4982310;28;20089;-83
2022/03/14 12:01:29;;;;;;;20.80;10.60;;;9.80;99.90;;;;;;4986396;28;20050;-85
2022/03/14 12:03:54;;;;;;;;;;;9.80;99.90;;;;;;4973590;28;20038;-83
2022/03/14 12:06:46;;;;;;;20.67;11.53;;;9.80;99.90;;;;;;4967461;28;20740;-82
2022/03/14 12:09:24;;;;;;;19.50;11.35;;;9.80;99.90;;;;;;4982406;28;20050;-85
2022/03/14 12:11:51;;;;;;;21.48;12.27;;;9.80;99.90;;;;;;4993110;28;20061;-82
2022/03/14 12:14:44;;;;;;;25.58;14.25;;;9.80;99.90;;;;;;4994637;28;20495;-82
2022/03/14 12:17:15;;;;;;;26.65;14.70;;;9.80;99.90;;;;;;4976618;28;20046;-83
2022/03/14 12:20:03;;;;;;;26.60;15.60;;;9.80;99.90;;;;;;4968883;28;20578;-82
2022/03/14 12:22:41;;;;;;;26.80;16.05;;;9.80;99.90;;;;;;4990290;28;20043;-86
2022/03/14 12:25:08;;;;;;;31.90;18.38;;;9.80;99.90;;;;;;4986114;28;20053;-85
2022/03/14 12:27:42;;;;;;;29.15;17.35;;;9.80;99.90;;;;;;4982226;28;20042;-83
2022/03/14 12:30:18;;;;;;;32.10;17.73;;;9.80;99.90;;;;;;4975273;28;20042;-84
2022/03/14 12:32:49;;;;;;;32.70;18.55;;;9.80;99.90;;;;;;4974640;28;20058;-85
2022/03/14 12:35:22;;;;;;;32.28;17.90;;;9.80;99.90;;;;;;4971748;28;20055;-83
2022/03/14 12:37:58;;;;;;;32.30;17.30;;;9.80;99.90;;;;;;4988465;28;20050;-84
2022/03/14 12:40:26;;;;;;;28.98;16.02;;;9.90;99.90;;;;;;4968309;28;20054;-86
2022/03/14 12:43:21;;;;;;;32.03;17.23;;;10.00;99.90;;;;;;4983930;28;20050;-85
2022/03/14 12:45:50;;;;;;;30.30;17.65;;;10.10;99.90;;;;;;4974049;28;20582;-85
2022/03/14 12:48:22;;;;;;;33.00;19.27;;;10.20;99.90;;;;;;4975893;28;20050;-83
2022/03/14 12:50:50;;;;;;;34.47;17.23;;;10.30;99.90;;;;;;4967488;28;20081;-83